Time;durP1;ratioP1;P1;durP2;ratioP2;P2;SDS_P1;SDS_P2;PMS_P1;PMS_P2;Temp;Humidity;BMP_temperature;BMP_pressure;BME280_temperature;BME280_humidity;BME280_pressure;Samples;Min_cycle;Max_cycle;Signal;HPM_P1;HPM_P2
2023/04/10 00:00:10;;;;;;;13.70;7.77;;;;;;;1.57;100.00;97370.47;10439063;28;20191;-74
2023/04/10 00:05:10;;;;;;;13.17;9.43;;;;;;;1.45;100.00;97371.13;10437866;28;20184;-74
2023/04/10 00:10:10;;;;;;;13.30;8.47;;;;;;;1.39;100.00;97369.72;10437880;28;20195;-74
2023/04/10 00:15:11;;;;;;;16.40;10.83;;;;;;;1.33;100.00;97376.06;10455646;28;20224;-75
2023/04/10 00:20:11;;;;;;;11.97;8.33;;;;;;;1.25;100.00;97371.28;10454696;28;20215;-74
2023/04/10 00:25:11;;;;;;;13.90;7.37;;;;;;;1.19;100.00;97373.38;10437106;28;20195;-74
2023/04/10 00:30:12;;;;;;;13.93;9.57;;;;;;;1.15;100.00;97364.97;10455367;28;20195;-74
2023/04/10 00:35:12;;;;;;;16.27;10.97;;;;;;;0.94;100.00;97359.19;10454347;28;20215;-74
2023/04/10 00:40:14;;;;;;;15.43;10.20;;;;;;;0.89;100.00;97354.28;10453254;28;20231;-74
2023/04/10 00:45:14;;;;;;;14.27;8.57;;;;;;;0.88;100.00;97355.19;10436455;28;20207;-74
2023/04/10 00:50:15;;;;;;;18.50;9.40;;;;;;;0.79;100.00;97362.56;10454251;28;20195;-75
2023/04/10 00:55:15;;;;;;;15.37;9.27;;;;;;;0.84;100.00;97358.84;10435923;28;20257;-75
2023/04/10 01:00:18;;;;;;;14.17;7.77;;;;;;;0.86;100.00;97362.19;10451302;28;20201;-75
2023/04/10 01:05:20;;;;;;;17.73;11.90;;;;;;;0.92;100.00;97353.28;10435447;28;20234;-74
2023/04/10 01:10:37;;;;;;;12.57;7.57;;;;;;;0.96;100.00;97344.47;10419056;28;20203;-74
2023/04/10 01:15:52;;;;;;;18.80;10.83;;;;;;;1.05;100.00;97345.72;10435906;28;20230;-74
2023/04/10 01:20:52;;;;;;;19.30;9.10;;;;;;;1.07;100.00;97349.03;10452829;28;20194;-74
2023/04/10 01:26:02;;;;;;;15.40;8.93;;;;;;;1.17;100.00;97349.41;10453209;28;20195;-74
2023/04/10 01:31:10;;;;;;;19.23;10.23;;;;;;;1.22;100.00;97353.38;10434437;28;20199;-74
2023/04/10 01:36:11;;;;;;;19.03;11.57;;;;;;;1.30;100.00;97352.97;10418385;28;20195;-74
2023/04/10 01:41:12;;;;;;;19.30;10.73;;;;;;;1.45;100.00;97353.06;10417579;28;20905;-74
2023/04/10 01:46:13;;;;;;;16.97;10.90;;;;;;;1.50;100.00;97351.91;10434019;28;20278;-75
2023/04/10 01:51:15;;;;;;;17.67;10.20;;;;;;;1.54;100.00;97349.97;10433857;28;20743;-75
2023/04/10 01:56:15;;;;;;;20.73;11.67;;;;;;;1.60;100.00;97347.06;10451738;28;20240;-75
2023/04/10 02:01:19;;;;;;;19.20;11.67;;;;;;;1.56;100.00;97340.38;10434015;28;20252;-75
2023/04/10 02:06:45;;;;;;;20.50;13.40;;;;;;;1.75;100.00;97337.63;10433699;28;20197;-75
2023/04/10 02:12:03;;;;;;;21.47;13.03;;;;;;;1.70;100.00;97343.06;10432657;28;20249;-75
2023/04/10 02:17:04;;;;;;;19.47;12.93;;;;;;;1.65;100.00;97345.03;10433353;28;20238;-75
2023/04/10 02:22:05;;;;;;;19.83;12.60;;;;;;;1.81;100.00;97339.00;10432996;28;20187;-75
2023/04/10 02:27:07;;;;;;;20.17;12.10;;;;;;;1.85;100.00;97330.19;10417103;28;20280;-75
2023/04/10 02:32:07;;;;;;;16.97;12.03;;;;;;;1.86;100.00;97324.94;10432953;28;20238;-75
2023/04/10 02:37:07;;;;;;;20.93;13.50;;;;;;;1.88;100.00;97320.50;10450387;28;20663;-74
2023/04/10 02:42:08;;;;;;;20.50;12.97;;;;;;;1.75;100.00;97315.22;10450684;28;20235;-75
2023/04/10 02:47:09;;;;;;;23.23;13.87;;;;;;;1.84;100.00;97326.78;10425662;28;20271;-75
2023/04/10 02:52:12;;;;;;;22.43;13.67;;;;;;;1.84;100.00;97323.34;10408180;28;20230;-75
2023/04/10 02:57:12;;;;;;;21.67;13.57;;;;;;;1.83;100.00;97330.28;10409385;28;20270;-75
2023/04/10 03:02:13;;;;;;;22.53;12.73;;;;;;;1.84;100.00;97333.69;10409316;28;20181;-75
2023/04/10 03:07:13;;;;;;;21.40;12.53;;;;;;;1.75;100.00;97325.53;10429968;28;20183;-75
2023/04/10 03:12:14;;;;;;;19.77;12.27;;;;;;;1.67;100.00;97332.91;10428698;28;20226;-75
2023/04/10 03:17:14;;;;;;;17.07;10.47;;;;;;;1.76;100.00;97336.69;10446778;28;20224;-75
2023/04/10 03:22:15;;;;;;;21.23;12.77;;;;;;;1.85;100.00;97336.16;10433113;28;20183;-75
2023/04/10 03:27:16;;;;;;;20.10;12.90;;;;;;;1.79;100.00;97339.09;10453745;28;20257;-75
2023/04/10 03:32:16;;;;;;;25.40;15.00;;;;;;;1.77;100.00;97326.28;10453169;28;20871;-75
2023/04/10 03:37:18;;;;;;;24.63;14.70;;;;;;;1.74;100.00;97334.19;10435304;28;20192;-75
2023/04/10 03:42:18;;;;;;;27.07;14.50;;;;;;;1.91;100.00;97333.25;10453046;28;20297;-75
2023/04/10 03:47:19;;;;;;;20.80;13.30;;;;;;;1.78;100.00;97329.72;10453337;28;20246;-75
2023/04/10 03:52:23;;;;;;;22.23;14.50;;;;;;;1.66;100.00;97323.47;10435194;28;20365;-75
2023/04/10 03:57:23;;;;;;;25.70;15.00;;;;;;;1.59;100.00;97335.91;10434851;28;20314;-75
2023/04/10 04:02:26;;;;;;;28.67;16.30;;;;;;;1.53;100.00;97338.84;10436354;28;20190;-75
2023/04/10 04:07:28;;;;;;;29.97;14.47;;;;;;;1.59;100.00;97347.97;10438203;28;20279;-75
2023/04/10 04:12:44;;;;;;;26.47;16.23;;;;;;;1.56;100.00;97359.31;10438012;28;20222;-75
2023/04/10 04:18:00;;;;;;;21.77;14.27;;;;;;;1.89;100.00;97362.69;10437506;28;20197;-75
2023/04/10 04:23:12;;;;;;;25.50;14.83;;;;;;;1.94;100.00;97353.72;10437696;28;20180;-75
2023/04/10 04:28:35;;;;;;;21.80;13.70;;;;;;;2.09;100.00;97357.19;10449663;28;20202;-75
2023/04/10 04:33:56;;;;;;;22.30;11.90;;;;;;;2.14;100.00;97372.44;10403334;28;20282;-75
2023/04/10 04:39:15;;;;;;;16.47;9.63;;;;;;;2.17;100.00;97376.63;10437849;28;20196;-75
2023/04/10 04:44:18;;;;;;;13.73;8.93;;;;;;;2.26;100.00;97373.50;10454276;28;20292;-74
2023/04/10 04:49:31;;;;;;;17.13;11.43;;;;;;;2.34;100.00;97375.66;10436588;28;20664;-74
2023/04/10 04:54:53;;;;;;;17.47;12.00;;;;;;;2.35;100.00;97372.97;10436387;28;20219;-74
2023/04/10 05:00:11;;;;;;;18.30;12.13;;;;;;;2.22;100.00;97366.84;10454246;28;20274;-75
2023/04/10 05:05:32;;;;;;;18.10;13.07;;;;;;;2.13;100.00;97369.03;10422812;28;20200;-75
2023/04/10 05:10:59;;;;;;;22.70;11.97;;;;;;;2.21;100.00;97370.38;10435575;28;20222;-74
2023/04/10 05:16:28;;;;;;;20.50;11.80;;;;;;;2.31;100.00;97369.75;10381735;28;20207;-74
2023/04/10 05:21:45;;;;;;;21.70;12.70;;;;;;;2.47;100.00;97361.91;10433499;28;20220;-75
2023/04/10 05:27:04;;;;;;;23.43;15.47;;;;;;;2.71;100.00;97371.75;10448771;28;20204;-74
2023/04/10 05:32:15;;;;;;;19.47;12.60;;;;;;;3.01;100.00;97363.06;10449891;28;20216;-75
2023/04/10 05:37:33;;;;;;;20.13;12.17;;;;;;;3.32;100.00;97363.75;10432592;28;20245;-74
2023/04/10 05:42:52;;;;;;;20.50;11.87;;;;;;;3.56;100.00;97364.00;10411216;28;21057;-74
2023/04/10 05:47:59;;;;;;;20.80;11.77;;;;;;;3.70;100.00;97365.69;10393288;28;20208;-74
2023/04/10 05:53:13;;;;;;;22.47;14.43;;;;;;;3.88;100.00;97359.34;10393156;28;20225;-74
2023/04/10 05:58:32;;;;;;;20.47;13.03;;;;;;;4.30;100.00;97354.03;10411454;28;20192;-74
2023/04/10 06:03:45;;;;;;;25.43;16.07;;;;;;;4.00;100.00;97347.34;10409305;28;20653;-74
2023/04/10 06:08:46;;;;;;;27.47;16.50;;;;;;;4.03;100.00;97352.34;10392561;28;20280;-74
2023/04/10 06:13:47;;;;;;;35.97;20.10;;;;;;;4.06;100.00;97351.31;10409193;28;20801;-74
2023/04/10 06:18:49;;;;;;;40.10;21.43;;;;;;;4.20;100.00;97347.81;10408687;28;20327;-75
2023/04/10 06:23:50;;;;;;;42.43;23.47;;;;;;;4.87;100.00;97345.06;10410344;28;20654;-74
2023/04/10 06:28:52;;;;;;;23.50;14.03;;;;;;;6.07;100.00;97340.97;10410142;28;20196;-75
2023/04/10 06:33:52;;;;;;;46.90;21.37;;;;;;;6.29;100.00;97321.16;10404239;28;20256;-75
2023/04/10 06:38:53;;;;;;;19.40;12.10;;;;;;;6.36;100.00;97319.75;10436042;28;20345;-74
2023/04/10 06:43:54;;;;;;;21.90;13.07;;;;;;;6.02;100.00;97320.50;10448941;28;20242;-75
2023/04/10 06:48:54;;;;;;;19.03;12.93;;;;;;;5.97;100.00;97322.59;10450924;28;20674;-75
2023/04/10 06:53:55;;;;;;;19.97;13.03;;;;;;;6.66;100.00;97327.03;10450330;28;20216;-76
2023/04/10 06:58:56;;;;;;;18.23;12.10;;;;;;;8.20;100.00;97295.75;10458880;28;20267;-76
2023/04/10 07:03:56;;;;;;;20.17;13.57;;;;;;;8.91;96.17;97272.38;10458753;28;20195;-76
2023/04/10 07:08:57;;;;;;;16.60;10.27;;;;;;;9.67;88.26;97230.97;10458124;28;20198;-75
2023/04/10 07:13:57;;;;;;;15.93;12.00;;;;;;;10.85;83.72;97214.00;10458342;28;20219;-76
2023/04/10 07:18:58;;;;;;;18.63;13.65;;;;;;;10.45;83.02;97213.34;10457954;28;20191;-76
2023/04/10 07:23:58;;;;;;;19.73;13.88;;;;;;;10.28;82.93;97219.31;10457668;28;20196;-76
2023/04/10 07:28:58;;;;;;;18.38;13.35;;;;;;;10.12;86.33;97269.63;10457412;28;20189;-77
2023/04/10 07:33:59;;;;;;;20.67;14.85;;;;;;;10.95;84.22;97237.53;10457004;28;20310;-76
2023/04/10 07:38:59;;;;;;;22.25;15.20;;;;;;;11.88;77.91;97179.56;10457027;28;20199;-77
2023/04/10 07:44:00;;;;;;;21.63;14.82;;;;;;;11.60;76.44;97172.63;10456586;28;20236;-76
2023/04/10 07:49:00;;;;;;;19.98;14.00;;;;;;;13.41;70.76;97133.25;10455945;28;20286;-76
2023/04/10 07:54:02;;;;;;;16.98;13.68;;;;;;;13.13;71.96;97161.63;10453574;28;20216;-77
2023/04/10 07:59:03;;;;;;;19.35;15.15;;;;;;;14.19;66.28;97086.22;10455896;28;20322;-75
2023/04/10 08:04:03;;;;;;;21.55;15.73;;;;;;;10.82;75.76;97186.28;10455950;28;20707;-76
2023/04/10 08:09:04;;;;;;;16.83;12.70;;;;;;;10.74;72.85;97138.22;10452676;28;20191;-77
2023/04/10 08:14:05;;;;;;;17.95;12.18;;;;;;;10.23;75.08;97166.53;10452782;28;20223;-78
2023/04/10 08:19:06;;;;;;;16.98;10.90;;;;;;;11.99;69.12;97094.50;10453319;28;20215;-77
2023/04/10 08:24:06;;;;;;;16.70;12.68;;;;;;;13.42;67.98;97129.63;10454266;28;20188;-78
2023/04/10 08:29:06;;;;;;;11.95;8.75;;;;;;;14.72;61.11;97028.50;10455308;28;20188;-77
2023/04/10 08:34:07;;;;;;;11.27;8.80;;;;;;;13.68;61.30;97036.50;10454710;28;20219;-76
2023/04/10 08:39:07;;;;;;;14.10;9.50;;;;;;;13.16;60.46;97021.88;10454932;28;20291;-77
2023/04/10 08:44:07;;;;;;;12.18;9.38;;;;;;;12.97;61.44;97038.81;10454384;28;20224;-76
2023/04/10 08:49:10;;;;;;;14.55;10.45;;;;;;;11.63;64.54;97069.16;10451960;28;20199;-76
2023/04/10 08:54:20;;;;;;;11.90;8.75;;;;;;;11.95;64.05;97062.50;10432278;28;20358;-76
2023/04/10 08:59:20;;;;;;;11.05;8.00;;;;;;;12.47;61.94;97038.72;10450618;28;20686;-77
2023/04/10 09:04:22;;;;;;;14.80;9.65;;;;;;;13.34;63.09;97067.28;10446732;28;20198;-76
2023/04/10 09:09:22;;;;;;;11.25;8.30;;;;;;;13.82;58.47;96992.84;10451390;28;20322;-77
2023/04/10 09:14:25;;;;;;;11.40;8.48;;;;;;;12.55;59.11;96985.38;10449727;28;20284;-74
2023/04/10 09:19:29;;;;;;;10.65;8.00;;;;;;;12.54;59.71;97006.53;10434003;28;20200;-75
2023/04/10 09:24:30;;;;;;;11.20;7.55;;;;;;;13.07;58.63;96991.31;10440793;28;20224;-75
2023/04/10 09:29:42;;;;;;;10.77;7.70;;;;;;;13.71;57.41;96979.03;10439024;28;20206;-75
2023/04/10 09:34:55;;;;;;;10.93;7.72;;;;;;;14.44;56.30;96968.31;10428390;28;20242;-75
2023/04/10 09:39:56;;;;;;;10.40;7.53;;;;;;;13.62;56.66;96947.66;10449856;28;20240;-74
2023/04/10 09:44:56;;;;;;;10.38;7.88;;;;;;;14.25;54.36;96927.44;10438762;28;20195;-74
2023/04/10 09:50:01;;;;;;;15.05;9.18;;;;;;;13.89;53.48;96880.56;10447882;28;20307;-74
2023/04/10 09:55:03;;;;;;;9.50;7.40;;;;;;;14.36;54.32;96920.94;10425034;28;20258;-75
2023/04/10 10:00:08;;;;;;;10.25;7.25;;;;;;;13.16;56.02;96920.09;10449913;28;20220;-76
2023/04/10 10:05:10;;;;;;;11.52;7.75;;;;;;;14.38;53.63;96906.59;10451867;28;20223;-75
2023/04/10 10:10:11;;;;;;;12.20;8.18;;;;;;;14.45;51.35;96838.19;10428166;28;20618;-76
2023/04/10 10:15:40;;;;;;;10.13;7.72;;;;;;;16.05;52.49;96919.63;10448198;28;20247;-76
2023/04/10 10:20:43;;;;;;;10.13;8.07;;;;;;;16.57;47.86;96813.78;10416762;28;20656;-75
2023/04/10 10:25:45;;;;;;;13.68;9.07;;;;;;;13.83;53.81;96876.81;10430039;28;20210;-75
2023/04/10 10:30:46;;;;;;;13.38;9.07;;;;;;;13.16;55.39;96893.81;10446790;28;20227;-73
2023/04/10 10:35:48;;;;;;;11.70;8.82;;;;;;;14.34;57.35;96955.38;10445455;28;20219;-76
2023/04/10 10:41:01;;;;;;;14.32;9.43;;;;;;;15.54;48.26;96790.19;10397302;28;20701;-75
2023/04/10 10:46:10;;;;;;;16.55;9.48;;;;;;;15.44;50.20;96838.00;10445680;28;20230;-75
2023/04/10 10:51:10;;;;;;;15.65;11.20;;;;;;;14.22;52.64;96849.53;10429952;28;20196;-75
2023/04/10 10:56:25;;;;;;;18.13;10.43;;;;;;;14.30;51.68;96826.78;10433907;28;20279;-75
2023/04/10 11:01:26;;;;;;;17.48;9.30;;;;;;;14.37;48.22;96746.00;10441609;28;20228;-76
2023/04/10 11:06:49;;;;;;;16.15;9.27;;;;;;;13.99;49.04;96748.66;10472457;28;20188;-75
2023/04/10 11:11:58;;;;;;;14.68;9.52;;;;;;;15.35;49.08;96802.16;10446610;28;20687;-73
2023/04/10 11:16:58;;;;;;;10.98;8.52;;;;;;;14.63;48.95;96777.25;10463379;28;20219;-75
2023/04/10 11:22:00;;;;;;;12.05;7.10;;;;;;;14.06;49.76;96768.81;10430469;28;20679;-75
2023/04/10 11:27:01;;;;;;;12.52;8.60;;;;;;;14.15;49.03;96737.97;10445928;28;20206;-75
2023/04/10 11:32:03;;;;;;;10.15;8.35;;;;;;;14.07;47.02;96687.97;10441804;28;20219;-75
2023/04/10 11:37:03;;;;;;;9.88;7.13;;;;;;;13.83;49.30;96737.25;10447879;28;20194;-75
2023/04/10 11:42:04;;;;;;;10.60;8.45;;;;;;;13.94;48.90;96729.94;10448549;28;20584;-76
2023/04/10 11:47:05;;;;;;;11.07;8.48;;;;;;;14.26;48.53;96728.81;10449165;28;20246;-75
2023/04/10 11:52:23;;;;;;;10.02;7.45;;;;;;;14.97;47.36;96718.66;10446377;28;20223;-80
2023/04/10 11:57:33;;;;;;;9.68;7.20;;;;;;;14.28;47.70;96696.00;10433259;28;20255;-76
2023/04/10 12:02:34;;;;;;;9.80;7.70;;;;;;;14.05;49.71;96714.50;10453149;28;20211;-75
2023/04/10 12:07:34;;;;;;;9.73;7.70;;;;;;;13.95;47.33;96660.44;10454346;28;20211;-76
2023/04/10 12:12:36;;;;;;;6.97;5.25;;;;;;;13.58;46.60;96639.19;10436511;28;20211;-76
2023/04/10 12:17:36;;;;;;;14.63;7.15;;;;;;;13.78;46.63;96646.59;10455289;28;20278;-78
2023/04/10 12:22:37;;;;;;;11.32;7.20;;;;;;;14.73;45.22;96634.56;10455350;28;20194;-76
2023/04/10 12:27:37;;;;;;;10.60;6.28;;;;;;;14.76;44.97;96650.03;10436778;28;20192;-76
2023/04/10 12:32:37;;;;;;;12.65;7.20;;;;;;;15.21;45.21;96657.84;10455327;28;20215;-78
2023/04/10 12:38:16;;;;;;;5.63;4.85;;;;;;;13.51;45.54;96604.06;10437058;28;20652;-79
2023/04/10 12:43:37;;;;;;;12.48;8.18;;;;;;;14.76;47.67;96708.88;10437308;28;20220;-77
2023/04/10 12:48:37;;;;;;;8.10;6.63;;;;;;;14.24;46.14;96639.41;10435704;28;20655;-77
2023/04/10 12:53:44;;;;;;;8.93;7.15;;;;;;;14.05;46.39;96637.31;10443266;28;20212;-76
2023/04/10 12:58:46;;;;;;;8.93;6.68;;;;;;;13.77;48.49;96682.66;10448808;28;20212;-74
2023/04/10 13:10:30;;;;;;;11.70;6.55;;;;;;;13.71;49.85;96691.25;10276226;28;20973;-74
2023/04/10 13:15:33;;;;;;;6.97;5.60;;;;;;;14.66;48.86;96675.88;10393096;28;20236;-74
2023/04/10 13:20:34;;;;;;;7.35;5.18;;;;;;;14.72;42.45;96522.22;10439022;28;20219;-74
2023/04/10 13:25:38;;;;;;;9.50;6.97;;;;;;;14.14;45.28;96570.34;10444998;28;20192;-75
2023/04/10 13:30:40;;;;;;;5.28;4.22;;;;;;;13.69;44.16;96532.66;10440359;28;20203;-74
2023/04/10 13:35:40;;;;;;;6.70;4.65;;;;;;;14.16;44.36;96542.00;10443094;28;20223;-75
2023/04/10 13:40:41;;;;;;;8.38;6.38;;;;;;;14.31;45.51;96570.16;10439710;28;20330;-73
2023/04/10 13:45:41;;;;;;;7.25;5.75;;;;;;;13.63;45.16;96525.47;10442394;28;20219;-74
2023/04/10 13:50:41;;;;;;;6.30;5.45;;;;;;;13.87;44.83;96516.50;10457274;28;20294;-74
2023/04/10 13:55:42;;;;;;;7.78;6.00;;;;;;;14.08;44.81;96524.47;10449832;28;20223;-74
2023/04/10 14:00:43;;;;;;;7.63;6.15;;;;;;;13.89;45.23;96515.34;10447684;28;20192;-74
2023/04/10 14:05:44;;;;;;;6.25;4.63;;;;;;;14.08;44.62;96513.13;10442075;28;20220;-76
2023/04/10 14:10:49;;;;;;;8.90;6.90;;;;;;;14.62;44.10;96502.25;10445788;28;21089;-74
2023/04/10 14:15:52;;;;;;;8.23;6.53;;;;;;;15.11;45.55;96542.84;10434870;28;20710;-76
2023/04/10 14:20:52;;;;;;;9.57;6.22;;;;;;;14.62;44.08;96488.22;10441802;28;20203;-75
2023/04/10 14:25:53;;;;;;;7.20;4.90;;;;;;;14.15;44.04;96469.25;10445962;28;20218;-73
2023/04/10 14:30:53;;;;;;;10.27;5.72;;;;;;;14.04;44.68;96474.97;10440772;28;20239;-77
2023/04/10 14:35:54;;;;;;;7.95;4.95;;;;;;;14.57;42.50;96451.84;10449295;28;20231;-74
2023/04/10 14:40:54;;;;;;;8.07;6.07;;;;;;;14.71;43.38;96457.28;10444083;28;20701;-75
2023/04/10 14:52:24;;;;;;;6.68;4.85;;;;;;;15.18;43.02;96458.50;10446959;28;20220;-74
2023/04/10 14:57:24;;;;;;;6.72;5.85;;;;;;;14.72;43.41;96441.28;10449628;28;20188;-74
2023/04/10 15:02:24;;;;;;;6.85;4.57;;;;;;;15.44;42.38;96464.97;10448748;28;20310;-74
2023/04/10 15:07:27;;;;;;;8.75;6.13;;;;;;;15.00;42.84;96424.66;10448322;28;20184;-74
2023/04/10 15:12:27;;;;;;;7.00;4.88;;;;;;;14.44;44.01;96460.44;10447346;28;20592;-74
2023/04/10 15:17:28;;;;;;;10.98;7.53;;;;;;;14.84;43.43;96425.75;10453182;28;20187;-74
2023/04/10 15:22:29;;;;;;;7.57;6.15;;;;;;;15.01;43.40;96418.38;10455413;28;20195;-74
2023/04/10 15:27:29;;;;;;;6.97;6.25;;;;;;;15.48;42.32;96387.81;10438686;28;20192;-74
2023/04/10 15:32:29;;;;;;;9.25;5.00;;;;;;;14.36;43.78;96386.75;10456431;28;20224;-74
2023/04/10 15:37:30;;;;;;;7.80;5.05;;;;;;;14.31;43.58;96375.97;10456698;28;20187;-74
2023/04/10 15:42:31;;;;;;;7.53;5.63;;;;;;;14.36;44.59;96404.41;10439126;28;20242;-74
2023/04/10 15:47:31;;;;;;;7.47;5.80;;;;;;;14.20;44.37;96384.41;10456508;28;20241;-74
2023/04/10 15:52:32;;;;;;;9.95;5.60;;;;;;;14.04;45.38;96390.69;10456020;28;20273;-74
2023/04/10 15:57:33;;;;;;;7.18;5.60;;;;;;;13.68;45.82;96400.22;10456223;28;20192;-74
2023/04/10 16:02:33;;;;;;;7.32;5.07;;;;;;;13.42;46.04;96384.91;10455199;28;20464;-74
2023/04/10 16:07:37;;;;;;;7.30;5.90;;;;;;;13.86;45.87;96381.41;10456130;28;20194;-74
2023/04/10 16:12:40;;;;;;;7.53;5.82;;;;;;;13.41;46.56;96371.94;10454730;28;20220;-74
2023/04/10 16:17:40;;;;;;;7.55;6.13;;;;;;;13.71;45.88;96377.97;10455116;28;20598;-74
2023/04/10 16:22:40;;;;;;;6.85;5.47;;;;;;;12.98;46.71;96360.19;10454980;28;20196;-74
2023/04/10 16:27:41;;;;;;;6.63;5.18;;;;;;;12.96;47.13;96374.53;10432689;28;20200;-74
2023/04/10 16:32:41;;;;;;;9.18;5.82;;;;;;;12.75;48.80;96399.69;10431546;28;20278;-74
2023/04/10 16:37:41;;;;;;;10.10;6.07;;;;;;;12.63;48.91;96393.22;10436868;28;20295;-74
2023/04/10 16:42:42;;;;;;;8.85;6.00;;;;;;;12.66;48.78;96401.59;10440414;28;20235;-74
2023/04/10 16:47:44;;;;;;;7.45;5.65;;;;;;;12.71;49.25;96398.44;10449916;28;20191;-74
2023/04/10 16:52:45;;;;;;;6.32;5.22;;;;;;;12.63;49.57;96394.06;10444013;28;21020;-74
2023/04/10 16:57:45;;;;;;;9.57;7.45;;;;;;;12.01;50.44;96392.34;10402543;28;20200;-74
2023/04/10 17:02:47;;;;;;;6.00;4.72;;;;;;;11.72;51.15;96393.78;10411348;28;20196;-74
2023/04/10 17:07:51;;;;;;;8.98;5.88;;;;;;;11.65;50.89;96369.22;10411389;28;20648;-74
2023/04/10 17:12:51;;;;;;;6.53;5.65;;;;;;;11.70;51.72;96398.41;10410752;28;20242;-74
2023/04/10 17:17:52;;;;;;;6.50;5.40;;;;;;;11.39;52.67;96406.22;10429927;28;20190;-73
2023/04/10 17:22:53;;;;;;;6.82;5.93;;;;;;;11.16;52.82;96390.38;10449658;28;20273;-74
2023/04/10 17:27:53;;;;;;;8.07;5.90;;;;;;;10.89;54.29;96413.38;10451216;28;20331;-73
2023/04/10 17:32:53;;;;;;;9.95;7.30;;;;;;;10.77;55.01;96425.19;10437987;28;20219;-74
2023/04/10 17:37:54;;;;;;;9.25;6.40;;;;;;;10.49;55.69;96444.66;10451539;28;20206;-74
2023/04/10 17:42:54;;;;;;;7.95;5.50;;;;;;;10.43;56.67;96444.47;10451200;28;20409;-73
2023/04/10 17:47:55;;;;;;;10.57;5.80;;;;;;;10.26;56.68;96427.91;10451657;28;20247;-73
2023/04/10 17:52:55;;;;;;;7.83;6.37;;;;;;;9.88;58.37;96469.38;10448349;28;20218;-73
2023/04/10 17:57:56;;;;;;;10.02;7.78;;;;;;;9.72;59.54;96468.31;10454756;28;20195;-73
2023/04/10 18:02:59;;;;;;;10.55;8.20;;;;;;;9.31;61.34;96502.09;10449138;28;20214;-73
2023/04/10 18:08:00;;;;;;;8.47;6.43;;;;;;;8.80;63.87;96520.16;10450638;28;20663;-74
2023/04/10 18:13:00;;;;;;;8.27;6.60;;;;;;;8.34;65.71;96548.88;10449570;28;20227;-73
2023/04/10 18:18:00;;;;;;;7.93;6.70;;;;;;;8.29;66.28;96551.13;10450103;28;20314;-73
2023/04/10 18:23:01;;;;;;;12.53;7.83;;;;;;;7.98;68.82;96574.91;10449554;28;20191;-73
2023/04/10 18:28:01;;;;;;;10.07;6.90;;;;;;;7.55;70.42;96583.25;10449281;28;20192;-73
2023/04/10 18:33:02;;;;;;;7.80;6.37;;;;;;;7.10;72.23;96582.91;10448984;28;20358;-73
2023/04/10 18:38:02;;;;;;;8.23;6.70;;;;;;;6.67;73.99;96597.13;10449682;28;20670;-73
2023/04/10 18:43:03;;;;;;;9.83;6.83;;;;;;;6.52;74.66;96588.88;10448141;28;20326;-74
2023/04/10 18:48:03;;;;;;;10.03;6.70;;;;;;;6.46;74.88;96580.81;10449171;28;20239;-73
2023/04/10 18:53:04;;;;;;;10.73;6.93;;;;;;;5.94;76.58;96575.69;10454109;28;20227;-73
2023/04/10 18:58:04;;;;;;;8.20;6.80;;;;;;;5.81;78.25;96574.13;10457046;28;20199;-73
2023/04/10 19:03:04;;;;;;;10.40;7.33;;;;;;;5.68;78.54;96563.13;10457006;28;20194;-73
2023/04/10 19:08:05;;;;;;;10.30;7.70;;;;;;;5.77;79.92;96572.75;10456617;28;20783;-73
2023/04/10 19:13:05;;;;;;;10.20;7.37;;;;;;;5.42;82.04;96573.09;10456136;28;20702;-73
2023/04/10 19:18:06;;;;;;;10.70;7.80;;;;;;;5.44;83.71;96560.84;10456103;28;20546;-73
2023/04/10 19:23:10;;;;;;;10.77;8.07;;;;;;;5.24;84.68;96544.28;10455930;28;20184;-73
2023/04/10 19:28:11;;;;;;;11.90;7.83;;;;;;;5.07;86.39;96541.34;10455669;28;20692;-72
2023/04/10 19:33:11;;;;;;;11.03;8.20;;;;;;;5.21;86.90;96531.56;10455552;28;20223;-72
2023/04/10 19:38:11;;;;;;;12.73;8.77;;;;;;;5.27;87.41;96507.69;10456219;28;20572;-73
2023/04/10 19:43:12;;;;;;;12.63;9.13;;;;;;;5.22;88.38;96499.44;10454331;28;20240;-72
2023/04/10 19:48:14;;;;;;;14.87;9.03;;;;;;;5.26;89.60;96499.06;10455555;28;20233;-72
2023/04/10 19:53:15;;;;;;;14.83;9.73;;;;;;;5.75;86.03;96469.88;10454225;28;20323;-73
2023/04/10 19:58:15;;;;;;;11.73;7.57;;;;;;;6.44;79.61;96417.00;10454877;28;20653;-73
2023/04/10 20:03:15;;;;;;;12.77;7.93;;;;;;;7.29;74.46;96371.03;10455251;28;20603;-72
2023/04/10 20:08:16;;;;;;;12.23;7.30;;;;;;;7.45;73.35;96373.00;10452533;28;20567;-73
2023/04/10 20:13:16;;;;;;;10.37;7.37;;;;;;;7.36;73.66;96365.22;10454009;28;21028;-72
2023/04/10 20:18:16;;;;;;;8.07;6.07;;;;;;;7.83;70.06;96324.19;10453497;28;20640;-72
2023/04/10 20:23:17;;;;;;;7.93;5.90;;;;;;;8.42;66.28;96249.78;10451976;28;20622;-72
2023/04/10 20:28:17;;;;;;;6.87;5.17;;;;;;;8.59;65.21;96240.25;10450661;28;20652;-73
2023/04/10 20:33:18;;;;;;;7.33;5.80;;;;;;;8.52;64.83;96213.97;10455176;28;20621;-73
2023/04/10 20:38:18;;;;;;;7.27;5.90;;;;;;;8.63;64.31;96181.53;10452807;28;20214;-73
2023/04/10 20:43:19;;;;;;;7.87;5.53;;;;;;;8.75;63.84;96167.22;10452067;28;20235;-73
2023/04/10 20:48:20;;;;;;;7.63;5.83;;;;;;;8.60;64.26;96174.84;10452853;28;20184;-72
2023/04/10 20:53:20;;;;;;;5.90;4.70;;;;;;;8.65;63.47;96158.69;10451885;28;20223;-72
2023/04/10 20:58:21;;;;;;;5.20;3.67;;;;;;;8.72;62.93;96157.91;10451834;28;20223;-73
2023/04/10 21:16:43;;;;;;;7.53;5.70;;;;;;;8.59;62.91;96168.00;10453719;28;20224;-73
2023/04/10 21:21:44;;;;;;;10.37;5.90;;;;;;;8.58;62.84;96166.34;10452367;28;20677;-73
2023/04/10 21:26:44;;;;;;;6.50;5.23;;;;;;;8.55;62.84;96180.53;10452934;28;20220;-73
2023/04/10 21:31:44;;;;;;;5.80;4.07;;;;;;;8.50;63.20;96179.34;10452301;28;20282;-73
2023/04/10 21:36:45;;;;;;;7.10;4.83;;;;;;;8.48;63.25;96163.03;10452348;28;20323;-73
2023/04/10 21:41:45;;;;;;;8.23;4.23;;;;;;;8.53;62.87;96134.66;10450775;28;20267;-73
2023/04/10 21:46:46;;;;;;;4.93;4.00;;;;;;;8.43;63.65;96133.97;10450766;28;20184;-73
2023/04/10 21:51:46;;;;;;;7.53;4.27;;;;;;;8.48;63.33;96122.09;10449747;28;20253;-73
2023/04/10 21:56:46;;;;;;;6.33;4.70;;;;;;;8.50;63.26;96114.09;10449846;28;20304;-73
2023/04/10 22:01:48;;;;;;;6.53;4.80;;;;;;;8.48;63.46;96124.69;10449735;28;20215;-73
2023/04/10 22:06:48;;;;;;;7.30;5.47;;;;;;;8.42;63.46;96111.44;10449222;28;20654;-72
2023/04/10 22:11:48;;;;;;;6.07;3.80;;;;;;;8.39;63.83;96107.34;10449273;28;20648;-73
2023/04/10 22:16:49;;;;;;;5.37;4.03;;;;;;;8.29;64.47;96120.53;10449308;28;20570;-72
2023/04/10 22:21:49;;;;;;;7.50;3.63;;;;;;;8.31;64.60;96121.19;10448738;28;20600;-73
2023/04/10 22:26:50;;;;;;;8.73;5.80;;;;;;;8.20;64.88;96121.47;10448197;28;20556;-72
2023/04/10 22:31:50;;;;;;;4.83;3.77;;;;;;;8.28;64.78;96111.06;10448605;28;20281;-73
2023/04/10 22:36:50;;;;;;;7.93;5.73;;;;;;;8.28;65.06;96112.84;10448910;28;20215;-74
2023/04/10 22:41:51;;;;;;;5.73;4.07;;;;;;;8.33;64.77;96090.53;10446799;28;20632;-73
2023/04/10 22:46:51;;;;;;;6.37;4.70;;;;;;;8.33;64.83;96113.19;10448881;28;20192;-73
2023/04/10 22:51:51;;;;;;;5.60;4.53;;;;;;;8.32;65.13;96088.91;10448219;28;20204;-73
2023/04/10 22:56:52;;;;;;;8.00;6.07;;;;;;;8.33;65.08;96084.47;10423995;28;20598;-73
2023/04/10 23:01:52;;;;;;;6.87;4.77;;;;;;;8.30;65.09;96074.34;10406913;28;20633;-73
2023/04/10 23:06:52;;;;;;;7.07;6.10;;;;;;;8.28;65.39;96105.03;10407361;28;20549;-73
2023/04/10 23:11:53;;;;;;;8.90;4.53;;;;;;;8.27;65.34;96101.59;10406834;28;20664;-73
2023/04/10 23:16:53;;;;;;;5.87;4.60;;;;;;;8.22;65.82;96085.59;10406921;28;21023;-73
2023/04/10 23:21:54;;;;;;;10.13;5.37;;;;;;;8.08;66.12;96086.19;10406498;28;20657;-73
2023/04/10 23:26:54;;;;;;;8.03;5.00;;;;;;;8.01;66.72;96067.75;10406911;28;20195;-73
2023/04/10 23:31:55;;;;;;;7.23;4.17;;;;;;;7.89;67.30;96074.19;10406475;28;20192;-73
2023/04/10 23:36:55;;;;;;;9.63;5.70;;;;;;;7.89;67.71;96035.91;10408104;28;20329;-73
2023/04/10 23:41:56;;;;;;;6.73;5.70;;;;;;;7.89;67.68;96025.47;10414113;28;20835;-73